createdAt,value
2018-07-16T00:00:35.754Z,0.00
2018-07-16T00:01:35.705Z,0.00
2018-07-16T00:02:35.684Z,0.00
2018-07-16T00:03:35.616Z,0.00
2018-07-16T00:04:35.569Z,0.00
2018-07-16T00:05:35.524Z,0.00
2018-07-16T00:06:35.478Z,0.00
2018-07-16T00:07:35.460Z,0.00
2018-07-16T00:08:35.389Z,0.00
2018-07-16T00:09:35.340Z,0.00
2018-07-16T00:10:35.294Z,0.00
2018-07-16T00:11:35.247Z,0.00
2018-07-16T00:12:35.230Z,0.00
2018-07-16T00:13:35.157Z,0.00
2018-07-16T00:14:35.112Z,0.00
2018-07-16T00:15:35.063Z,0.00
2018-07-16T00:16:35.016Z,0.00
2018-07-16T00:17:34.996Z,0.00
2018-07-16T00:18:34.922Z,0.00
2018-07-16T00:19:34.881Z,0.00
2018-07-16T00:20:34.836Z,0.00
2018-07-16T00:21:34.788Z,0.00
2018-07-16T00:22:34.765Z,0.00
2018-07-16T00:23:34.702Z,0.00
2018-07-16T00:24:34.653Z,0.00
2018-07-16T00:25:34.603Z,0.00
2018-07-16T00:26:34.561Z,0.00
2018-07-16T00:27:34.537Z,0.00
2018-07-16T00:28:34.465Z,0.00
2018-07-16T00:29:34.419Z,0.00
2018-07-16T00:30:34.386Z,0.00
2018-07-16T00:31:34.327Z,0.00
2018-07-16T00:32:34.304Z,0.00
2018-07-16T00:33:34.235Z,0.00
2018-07-16T00:34:34.193Z,0.00
2018-07-16T00:35:34.146Z,0.00
2018-07-16T00:36:34.098Z,0.00
2018-07-16T00:37:34.073Z,0.00
2018-07-16T00:38:34.004Z,0.00
2018-07-16T00:39:33.966Z,0.00
2018-07-16T00:40:33.913Z,0.00
2018-07-16T00:41:33.867Z,0.00
2018-07-16T00:42:33.847Z,0.00
2018-07-16T00:43:33.775Z,0.00
2018-07-16T00:44:33.728Z,0.00
2018-07-16T00:45:33.684Z,0.00
2018-07-16T00:46:33.640Z,0.00
2018-07-16T00:47:33.618Z,0.00
2018-07-16T00:48:33.545Z,0.00
2018-07-16T00:49:33.496Z,0.00
2018-07-16T00:50:33.457Z,0.00
2018-07-16T00:51:33.405Z,0.00
2018-07-16T00:52:33.394Z,0.00
2018-07-16T00:53:33.319Z,0.00
2018-07-16T00:54:33.271Z,0.00
2018-07-16T00:55:33.224Z,0.00
2018-07-16T00:56:33.216Z,0.00
2018-07-16T00:57:33.181Z,0.00
2018-07-16T00:58:33.100Z,0.00
2018-07-16T00:59:33.041Z,0.00
2018-07-16T01:00:32.995Z,0.00
2018-07-16T01:01:32.949Z,0.00
2018-07-16T01:02:32.929Z,0.00
2018-07-16T01:03:32.864Z,0.00
2018-07-16T01:04:32.806Z,0.00
2018-07-16T01:05:32.761Z,0.00
2018-07-16T01:06:32.719Z,0.00
2018-07-16T01:07:32.697Z,0.00
2018-07-16T01:08:32.628Z,0.00
2018-07-16T01:09:32.584Z,0.00
2018-07-16T01:10:32.533Z,0.00
2018-07-16T01:11:32.489Z,0.00
2018-07-16T01:12:32.476Z,0.00
2018-07-16T01:13:32.395Z,0.00
2018-07-16T01:14:32.352Z,0.00
2018-07-16T01:15:32.300Z,0.00
2018-07-16T01:16:32.257Z,0.00
2018-07-16T01:17:32.209Z,0.00
2018-07-16T01:18:32.185Z,0.00
2018-07-16T01:19:32.116Z,0.00
2018-07-16T01:20:32.071Z,0.00
2018-07-16T01:21:32.026Z,0.00
2018-07-16T01:22:31.986Z,0.00
2018-07-16T01:23:31.959Z,0.00
2018-07-16T01:24:31.889Z,0.00
2018-07-16T01:25:31.842Z,0.00
2018-07-16T01:26:31.794Z,0.00
2018-07-16T01:27:31.746Z,0.00
2018-07-16T01:28:31.728Z,0.00
2018-07-16T01:29:31.669Z,0.00
2018-07-16T01:30:31.612Z,0.00
2018-07-16T01:31:31.563Z,0.00
2018-07-16T01:32:31.515Z,0.00
2018-07-16T01:33:31.498Z,0.00
2018-07-16T01:34:31.428Z,0.00
2018-07-16T01:35:31.384Z,0.00
2018-07-16T01:36:31.330Z,0.00
2018-07-16T01:37:31.289Z,0.00
2018-07-16T01:38:31.280Z,0.00
2018-07-16T01:39:31.194Z,0.00
2018-07-16T01:40:31.153Z,0.00
2018-07-16T01:41:31.102Z,0.00
2018-07-16T01:42:31.057Z,0.00
2018-07-16T01:43:31.034Z,0.00
2018-07-16T01:44:30.999Z,0.00
2018-07-16T01:45:30.917Z,0.00
2018-07-16T01:46:30.874Z,0.00
2018-07-16T01:47:30.824Z,0.00
2018-07-16T01:48:30.794Z,0.00
2018-07-16T01:49:30.735Z,0.00
2018-07-16T01:50:30.688Z,0.00
2018-07-16T01:51:30.635Z,0.00
2018-07-16T01:52:30.594Z,0.00
2018-07-16T01:53:30.572Z,0.00
2018-07-16T01:54:30.512Z,0.00
2018-07-16T01:55:30.473Z,0.00
2018-07-16T01:56:30.408Z,0.00
2018-07-16T01:57:30.362Z,0.00
2018-07-16T01:58:30.338Z,0.00
2018-07-16T01:59:30.274Z,0.00
2018-07-16T02:00:30.226Z,0.00
2018-07-16T02:01:30.172Z,0.00
2018-07-16T02:02:30.138Z,0.00
2018-07-16T02:03:30.104Z,0.00
2018-07-16T02:04:30.036Z,0.00
2018-07-16T02:05:30.007Z,0.00
2018-07-16T02:06:29.946Z,0.00
2018-07-16T02:07:29.894Z,0.00
2018-07-16T02:08:29.876Z,0.00
2018-07-16T02:09:29.805Z,0.00
2018-07-16T02:10:29.766Z,0.00
2018-07-16T02:11:29.713Z,0.00
2018-07-16T02:12:29.680Z,0.00
2018-07-16T02:13:29.653Z,0.00
2018-07-16T02:14:29.572Z,0.00
2018-07-16T02:15:29.534Z,0.00
2018-07-16T02:16:29.481Z,0.00
2018-07-16T02:17:29.432Z,0.00
2018-07-16T02:18:29.414Z,0.00
2018-07-16T02:19:29.347Z,0.00
2018-07-16T02:20:29.298Z,0.00
2018-07-16T02:21:29.250Z,0.00
2018-07-16T02:22:29.209Z,0.00
2018-07-16T02:23:29.186Z,0.00
2018-07-16T02:24:29.106Z,0.00
2018-07-16T02:25:29.064Z,0.00
2018-07-16T02:26:29.018Z,0.00
2018-07-16T02:27:28.968Z,0.00
2018-07-16T02:28:28.948Z,0.00
2018-07-16T02:29:28.878Z,0.00
2018-07-16T02:30:28.831Z,0.00
2018-07-16T02:31:28.782Z,0.00
2018-07-16T02:32:28.745Z,0.00
2018-07-16T02:33:28.714Z,0.00
2018-07-16T02:34:28.647Z,0.00
2018-07-16T02:35:28.594Z,0.00
2018-07-16T02:36:28.562Z,0.00
2018-07-16T02:37:28.503Z,0.00
2018-07-16T02:38:28.484Z,0.00
2018-07-16T02:39:28.414Z,0.00
2018-07-16T02:40:28.367Z,0.00
2018-07-16T02:41:28.319Z,0.00
2018-07-16T02:42:28.277Z,0.00
2018-07-16T02:43:28.261Z,0.00
2018-07-16T02:44:28.178Z,0.00
2018-07-16T02:45:28.135Z,0.00
2018-07-16T02:46:28.090Z,4.00
2018-07-16T02:47:28.038Z,4.00
2018-07-16T02:48:27.991Z,0.00
2018-07-16T02:49:27.976Z,0.00
2018-07-16T02:50:27.904Z,4.00
2018-07-16T02:51:27.850Z,4.00
2018-07-16T02:52:27.808Z,0.00
2018-07-16T02:53:27.763Z,4.00
2018-07-16T02:54:27.744Z,4.00
2018-07-16T02:55:27.671Z,4.00
2018-07-16T02:56:27.764Z,4.00
2018-07-16T02:57:27.577Z,4.00
2018-07-16T02:58:27.530Z,8.00
2018-07-16T02:59:27.503Z,8.00
2018-07-16T03:00:27.434Z,4.00
2018-07-16T03:01:27.384Z,8.00
2018-07-16T03:02:27.340Z,8.00
2018-07-16T03:03:27.296Z,12.00
2018-07-16T03:04:27.273Z,12.00
2018-07-16T03:05:27.206Z,12.00
2018-07-16T03:06:27.153Z,12.00
2018-07-16T03:07:27.111Z,16.00
2018-07-16T03:08:27.061Z,20.00
2018-07-16T03:09:27.043Z,20.00
2018-07-16T03:10:26.967Z,20.00
2018-07-16T03:11:26.922Z,24.00
2018-07-16T03:12:26.881Z,28.00
2018-07-16T03:13:26.835Z,28.00
2018-07-16T03:14:26.822Z,36.00
2018-07-16T03:15:26.734Z,36.00
2018-07-16T03:16:26.690Z,40.00
2018-07-16T03:17:26.647Z,44.00
2018-07-16T03:18:26.591Z,44.00
2018-07-16T03:19:26.569Z,52.00
2018-07-16T03:20:26.507Z,56.00
2018-07-16T03:21:26.455Z,64.00
2018-07-16T03:22:26.412Z,64.00
2018-07-16T03:23:26.359Z,72.00
2018-07-16T03:24:26.341Z,76.00
2018-07-16T03:25:26.277Z,80.00
2018-07-16T03:26:26.227Z,88.00
2018-07-16T03:27:26.176Z,92.00
2018-07-16T03:28:26.133Z,100.00
2018-07-16T03:29:26.101Z,104.00
2018-07-16T03:30:26.036Z,112.00
2018-07-16T03:31:25.990Z,120.00
2018-07-16T03:32:25.946Z,124.00
2018-07-16T03:33:25.894Z,132.00
2018-07-16T03:34:25.880Z,140.00
2018-07-16T03:35:25.804Z,148.00
2018-07-16T03:36:25.755Z,160.00
2018-07-16T03:37:25.717Z,168.00
2018-07-16T03:38:25.661Z,176.00
2018-07-16T03:39:25.640Z,184.00
2018-07-16T03:40:25.563Z,196.00
2018-07-16T03:41:25.522Z,204.00
2018-07-16T03:42:25.472Z,212.00
2018-07-16T03:43:25.428Z,220.00
2018-07-16T03:44:25.427Z,232.00
2018-07-16T03:45:25.343Z,240.00
2018-07-16T03:46:25.289Z,252.00
2018-07-16T03:47:25.240Z,264.00
2018-07-16T03:48:25.193Z,268.00
2018-07-16T03:49:25.185Z,280.00
2018-07-16T03:50:25.101Z,292.00
2018-07-16T03:51:25.051Z,304.00
2018-07-16T03:52:25.008Z,312.00
2018-07-16T03:53:24.965Z,320.00
2018-07-16T03:54:25.014Z,336.00
2018-07-16T03:55:24.869Z,344.00
2018-07-16T03:56:24.820Z,356.00
2018-07-16T03:57:24.781Z,364.00
2018-07-16T03:58:24.732Z,380.00
2018-07-16T03:59:24.719Z,388.00
2018-07-16T04:00:24.661Z,404.00
2018-07-16T04:01:24.590Z,412.00
2018-07-16T04:02:24.551Z,428.00
2018-07-16T04:03:24.493Z,444.00
2018-07-16T04:04:24.475Z,464.00
2018-07-16T04:05:24.401Z,488.00
2018-07-16T04:06:24.357Z,516.00
2018-07-16T04:07:24.313Z,552.00
2018-07-16T04:08:24.265Z,592.00
2018-07-16T04:09:24.250Z,640.00
2018-07-16T04:10:24.173Z,700.00
2018-07-16T04:11:24.118Z,768.00
2018-07-16T04:12:24.075Z,852.00
2018-07-16T04:13:24.033Z,940.00
2018-07-16T04:14:24.028Z,1040.00
2018-07-16T04:15:23.936Z,1156.00
2018-07-16T04:16:23.892Z,1264.00
2018-07-16T04:17:23.846Z,1388.00
2018-07-16T04:18:23.802Z,1512.00
2018-07-16T04:19:23.746Z,1648.00
2018-07-16T04:20:23.726Z,1800.00
2018-07-16T04:21:23.660Z,1956.00
2018-07-16T04:22:23.618Z,2124.00
2018-07-16T04:23:23.566Z,2288.00
2018-07-16T04:24:23.517Z,2468.00
2018-07-16T04:25:23.497Z,2648.00
2018-07-16T04:26:23.439Z,2824.00
2018-07-16T04:27:23.382Z,2996.00
2018-07-16T04:28:23.339Z,3160.00
2018-07-16T04:29:23.281Z,3324.00
2018-07-16T04:30:23.276Z,3472.00
2018-07-16T04:31:23.189Z,3608.00
2018-07-16T04:32:23.142Z,3712.00
2018-07-16T04:33:23.096Z,3832.00
2018-07-16T04:34:23.054Z,3928.00
2018-07-16T04:35:23.040Z,4024.00
2018-07-16T04:36:22.958Z,4108.00
2018-07-16T04:37:22.919Z,4196.00
2018-07-16T04:38:22.869Z,4272.00
2018-07-16T04:39:22.825Z,4332.00
2018-07-16T04:40:22.806Z,4404.00
2018-07-16T04:41:22.728Z,4480.00
2018-07-16T04:42:22.690Z,4560.00
2018-07-16T04:43:22.638Z,4608.00
2018-07-16T04:44:22.654Z,4656.00
2018-07-16T04:45:22.569Z,4728.00
2018-07-16T04:46:22.497Z,4780.00
2018-07-16T04:47:22.453Z,4868.00
2018-07-16T04:48:22.408Z,4936.00
2018-07-16T04:49:22.358Z,4968.00
2018-07-16T04:50:22.342Z,5024.00
2018-07-16T04:51:22.271Z,5088.00
2018-07-16T04:52:22.229Z,5152.00
2018-07-16T04:53:22.177Z,5188.00
2018-07-16T04:54:22.138Z,5256.00
2018-07-16T04:55:22.113Z,5292.00
2018-07-16T04:56:22.042Z,5352.00
2018-07-16T04:57:21.996Z,5396.00
2018-07-16T04:58:21.955Z,5448.00
2018-07-16T04:59:21.900Z,5512.00
2018-07-16T05:00:21.885Z,5556.00
2018-07-16T05:01:21.810Z,5616.00
2018-07-16T05:02:21.767Z,5652.00
2018-07-16T05:03:21.836Z,5716.00
2018-07-16T05:04:21.685Z,5756.00
2018-07-16T05:05:21.655Z,5800.00
2018-07-16T05:06:21.583Z,5836.00
2018-07-16T05:07:21.542Z,5852.00
2018-07-16T05:08:21.500Z,5872.00
2018-07-16T05:09:21.450Z,5924.00
2018-07-16T05:10:21.449Z,5884.00
2018-07-16T05:11:21.360Z,5996.00
2018-07-16T05:12:21.324Z,6040.00
2018-07-16T05:13:21.275Z,6060.00
2018-07-16T05:14:21.227Z,6120.00
2018-07-16T05:15:21.199Z,6140.00
2018-07-16T05:16:21.135Z,6184.00
2018-07-16T05:17:21.087Z,6204.00
2018-07-16T05:18:21.156Z,6228.00
2018-07-16T05:19:20.999Z,6256.00
2018-07-16T05:20:20.991Z,6308.00
2018-07-16T05:21:20.906Z,6340.00
2018-07-16T05:22:20.863Z,6352.00
2018-07-16T05:23:20.822Z,6380.00
2018-07-16T05:24:20.777Z,6400.00
2018-07-16T05:25:20.771Z,6436.00
2018-07-16T05:26:20.693Z,6484.00
2018-07-16T05:27:20.642Z,6488.00
2018-07-16T05:28:20.601Z,6536.00
2018-07-16T05:29:20.550Z,6532.00
2018-07-16T05:30:20.550Z,5404.00
2018-07-16T05:31:20.528Z,5200.00
2018-07-16T05:32:20.519Z,5220.00
2018-07-16T05:33:20.394Z,5236.00
2018-07-16T05:34:20.325Z,5256.00
2018-07-16T05:35:20.318Z,5272.00
2018-07-16T05:36:20.248Z,5320.00
2018-07-16T05:37:20.201Z,5288.00
2018-07-16T05:38:20.261Z,5320.00
2018-07-16T05:39:20.101Z,5352.00
2018-07-16T05:40:20.090Z,5356.00
2018-07-16T05:41:20.025Z,5372.00
2018-07-16T05:42:19.972Z,5392.00
2018-07-16T05:43:19.923Z,5396.00
2018-07-16T05:44:19.878Z,5412.00
2018-07-16T05:45:19.901Z,5448.00
2018-07-16T05:46:19.800Z,5420.00
2018-07-16T05:47:19.752Z,5436.00
2018-07-16T05:48:19.702Z,5484.00
2018-07-16T05:49:19.662Z,5512.00
2018-07-16T05:50:19.624Z,5532.00
2018-07-16T05:51:19.594Z,5516.00
2018-07-16T05:52:19.530Z,5540.00
2018-07-16T05:53:19.487Z,5524.00
2018-07-16T05:54:19.447Z,5536.00
2018-07-16T05:55:19.387Z,5520.00
2018-07-16T05:56:19.372Z,5492.00
2018-07-16T05:57:19.303Z,5404.00
2018-07-16T05:58:19.287Z,5392.00
2018-07-16T05:59:19.208Z,5400.00
2018-07-16T06:00:19.171Z,5440.00
2018-07-16T06:01:19.155Z,5464.00
2018-07-16T06:02:19.097Z,5500.00
2018-07-16T06:03:19.037Z,5412.00
2018-07-16T06:04:19.005Z,5428.00
2018-07-16T06:05:18.964Z,5420.00
2018-07-16T06:06:18.948Z,5428.00
2018-07-16T06:07:18.877Z,5436.00
2018-07-16T06:08:18.810Z,5436.00
2018-07-16T06:09:18.766Z,5408.00
2018-07-16T06:10:18.724Z,5428.00
2018-07-16T06:11:18.707Z,5416.00
2018-07-16T06:12:18.634Z,5424.00
2018-07-16T06:13:18.589Z,5424.00
2018-07-16T06:14:18.552Z,5492.00
2018-07-16T06:15:18.498Z,5432.00
2018-07-16T06:16:18.480Z,5432.00
2018-07-16T06:17:18.422Z,5404.00
2018-07-16T06:18:18.363Z,5400.00
2018-07-16T06:19:18.318Z,5412.00
2018-07-16T06:20:18.275Z,5400.00
2018-07-16T06:21:18.258Z,5424.00
2018-07-16T06:22:18.189Z,5392.00
2018-07-16T06:23:18.145Z,5404.00
2018-07-16T06:24:18.104Z,5408.00
2018-07-16T06:25:18.059Z,5420.00
2018-07-16T06:26:18.035Z,5392.00
2018-07-16T06:27:17.969Z,5364.00
2018-07-16T06:28:17.924Z,5376.00
2018-07-16T06:29:17.880Z,5372.00
2018-07-16T06:30:17.833Z,5428.00
2018-07-16T06:31:17.817Z,5372.00
2018-07-16T06:32:17.755Z,5352.00
2018-07-16T06:33:17.703Z,5344.00
2018-07-16T06:34:17.655Z,5368.00
2018-07-16T06:35:17.617Z,5340.00
2018-07-16T06:36:17.594Z,5328.00
2018-07-16T06:37:17.529Z,5308.00
2018-07-16T06:38:17.485Z,5324.00
2018-07-16T06:39:17.445Z,5328.00
2018-07-16T06:40:17.491Z,5292.00
2018-07-16T06:41:17.566Z,5308.00
2018-07-16T06:42:17.313Z,5292.00
2018-07-16T06:43:17.265Z,5312.00
2018-07-16T06:44:17.224Z,5312.00
2018-07-16T06:45:17.179Z,5248.00
2018-07-16T06:46:17.157Z,5312.00
2018-07-16T06:47:17.090Z,5264.00
2018-07-16T06:48:17.051Z,5200.00
2018-07-16T06:49:17.001Z,5224.00
2018-07-16T06:50:16.966Z,5192.00
2018-07-16T06:51:16.942Z,5192.00
2018-07-16T06:52:16.875Z,5192.00
2018-07-16T06:53:16.831Z,5152.00
2018-07-16T06:54:16.784Z,5196.00
2018-07-16T06:55:16.819Z,5088.00
2018-07-16T06:56:16.722Z,5148.00
2018-07-16T06:57:16.651Z,5132.00
2018-07-16T06:58:16.617Z,5100.00
2018-07-16T06:59:16.568Z,5092.00
2018-07-16T07:00:16.530Z,5080.00
2018-07-16T07:01:16.505Z,5120.00
2018-07-16T07:02:16.468Z,5056.00
2018-07-16T07:03:16.402Z,5096.00
2018-07-16T07:04:16.354Z,5000.00
2018-07-16T07:05:16.311Z,4968.00
2018-07-16T07:06:16.295Z,5020.00
2018-07-16T07:07:16.221Z,4948.00
2018-07-16T07:08:16.180Z,4916.00
2018-07-16T07:09:16.138Z,4916.00
2018-07-16T07:10:16.091Z,4908.00
2018-07-16T07:11:16.075Z,4896.00
2018-07-16T07:12:16.003Z,4884.00
2018-07-16T07:13:15.959Z,4848.00
2018-07-16T07:14:15.921Z,4872.00
2018-07-16T07:15:15.874Z,4816.00
2018-07-16T07:16:15.861Z,4808.00
2018-07-16T07:17:15.792Z,4780.00
2018-07-16T07:18:15.759Z,4792.00
2018-07-16T07:19:15.707Z,4780.00
2018-07-16T07:20:15.660Z,4716.00
2018-07-16T07:21:15.618Z,4696.00
2018-07-16T07:22:15.596Z,4688.00
2018-07-16T07:23:15.529Z,4680.00
2018-07-16T07:24:15.492Z,4656.00
2018-07-16T07:25:15.448Z,4644.00
2018-07-16T07:26:15.404Z,4636.00
2018-07-16T07:27:15.383Z,4612.00
2018-07-16T07:28:15.312Z,4592.00
2018-07-16T07:29:15.273Z,4572.00
2018-07-16T07:30:15.236Z,4532.00
2018-07-16T07:31:15.185Z,4532.00
2018-07-16T07:32:15.169Z,4416.00
2018-07-16T07:33:15.101Z,4444.00
2018-07-16T07:34:15.061Z,4452.00
2018-07-16T07:35:15.069Z,4376.00
2018-07-16T07:36:14.987Z,4376.00
2018-07-16T07:37:14.972Z,4388.00
2018-07-16T07:38:14.891Z,4328.00
2018-07-16T07:39:14.848Z,4296.00
2018-07-16T07:40:14.809Z,4288.00
2018-07-16T07:41:14.760Z,4264.00
2018-07-16T07:42:14.743Z,4260.00
2018-07-16T07:43:14.674Z,4244.00
2018-07-16T07:44:14.634Z,4212.00
2018-07-16T07:45:14.599Z,4188.00
2018-07-16T07:46:14.547Z,4188.00
2018-07-16T07:47:14.533Z,4156.00
2018-07-16T07:48:14.461Z,4116.00
2018-07-16T07:49:14.421Z,4100.00
2018-07-16T07:50:14.380Z,4084.00
2018-07-16T07:51:14.333Z,4040.00
2018-07-16T07:52:14.316Z,4012.00
2018-07-16T07:53:14.253Z,3988.00
2018-07-16T07:54:14.300Z,3968.00
2018-07-16T07:55:14.676Z,3928.00
2018-07-16T07:56:14.124Z,3924.00
2018-07-16T07:57:14.106Z,3884.00
2018-07-16T07:58:14.042Z,3860.00
2018-07-16T07:59:13.995Z,3828.00
2018-07-16T08:00:13.962Z,3780.00
2018-07-16T08:01:13.912Z,3800.00
2018-07-16T08:02:13.894Z,3764.00
2018-07-16T08:03:13.853Z,3716.00
2018-07-16T08:04:13.791Z,3716.00
2018-07-16T08:05:13.750Z,3668.00
2018-07-16T08:06:13.703Z,3616.00
2018-07-16T08:07:13.688Z,3596.00
2018-07-16T08:08:13.623Z,3548.00
2018-07-16T08:09:13.578Z,3540.00
2018-07-16T08:10:13.539Z,3504.00
2018-07-16T08:11:13.491Z,3516.00
2018-07-16T08:12:13.478Z,3488.00
2018-07-16T08:13:13.412Z,3452.00
2018-07-16T08:14:13.367Z,3428.00
2018-07-16T08:15:13.327Z,3376.00
2018-07-16T08:16:13.281Z,3340.00
2018-07-16T08:17:13.269Z,3316.00
2018-07-16T08:18:13.208Z,3256.00
2018-07-16T08:19:13.162Z,3192.00
2018-07-16T08:20:13.118Z,3216.00
2018-07-16T08:21:13.078Z,3144.00
2018-07-16T08:22:13.058Z,3132.00
2018-07-16T08:23:12.992Z,3064.00
2018-07-16T08:24:12.947Z,2976.00
2018-07-16T08:25:12.910Z,2948.00
2018-07-16T08:26:12.869Z,2900.00
2018-07-16T08:27:12.848Z,2680.00
2018-07-16T08:28:12.807Z,2832.00
2018-07-16T08:29:12.740Z,2792.00
2018-07-16T08:30:12.708Z,2696.00
2018-07-16T08:31:12.658Z,2648.00
2018-07-16T08:32:12.639Z,2632.00
2018-07-16T08:33:12.571Z,2572.00
2018-07-16T08:34:12.535Z,2544.00
2018-07-16T08:35:12.495Z,2488.00
2018-07-16T08:36:12.452Z,2436.00
2018-07-16T08:37:12.438Z,2444.00
2018-07-16T08:38:12.365Z,2404.00
2018-07-16T08:39:12.387Z,2360.00
2018-07-16T08:40:12.280Z,2352.00
2018-07-16T08:41:12.239Z,2336.00
2018-07-16T08:42:12.226Z,2332.00
2018-07-16T08:43:12.195Z,2384.00
2018-07-16T08:44:12.113Z,2420.00
2018-07-16T08:45:12.073Z,2280.00
2018-07-16T08:46:12.068Z,2332.00
2018-07-16T08:47:11.993Z,2312.00
2018-07-16T08:48:11.972Z,2312.00
2018-07-16T08:49:11.908Z,2304.00
2018-07-16T08:50:11.868Z,2304.00
2018-07-16T08:51:11.822Z,2372.00
2018-07-16T08:52:11.783Z,2280.00
2018-07-16T08:53:11.769Z,2348.00
2018-07-16T08:54:11.701Z,2308.00
2018-07-16T08:55:11.668Z,2308.00
2018-07-16T08:56:11.619Z,2320.00
2018-07-16T08:57:11.576Z,2320.00
2018-07-16T08:58:11.568Z,2296.00
2018-07-16T08:59:11.512Z,2284.00
2018-07-16T09:00:11.460Z,2284.00
2018-07-16T09:01:11.414Z,2296.00
2018-07-16T09:02:11.371Z,2304.00
2018-07-16T09:03:11.365Z,2324.00
2018-07-16T09:04:11.338Z,2312.00
2018-07-16T09:05:11.277Z,2316.00
2018-07-16T09:06:11.210Z,2376.00
2018-07-16T09:07:11.181Z,2364.00
2018-07-16T09:08:11.151Z,2344.00
2018-07-16T09:09:11.086Z,2356.00
2018-07-16T09:10:11.045Z,2348.00
2018-07-16T09:11:11.014Z,2360.00
2018-07-16T09:12:10.962Z,2360.00
2018-07-16T09:13:10.993Z,2376.00
2018-07-16T09:14:10.881Z,2364.00
2018-07-16T09:15:10.840Z,2356.00
2018-07-16T09:16:10.803Z,2364.00
2018-07-16T09:17:10.758Z,2384.00
2018-07-16T09:18:10.742Z,2364.00
2018-07-16T09:19:10.695Z,2388.00
2018-07-16T09:20:10.640Z,2404.00
2018-07-16T09:21:10.599Z,2388.00
2018-07-16T09:22:10.570Z,2376.00
2018-07-16T09:23:10.538Z,2396.00
2018-07-16T09:24:10.486Z,2456.00
2018-07-16T09:25:10.436Z,2396.00
2018-07-16T09:26:10.395Z,2352.00
2018-07-16T09:27:10.352Z,2368.00
2018-07-16T09:28:10.336Z,2368.00
2018-07-16T09:29:10.275Z,2440.00
2018-07-16T09:30:10.232Z,2412.00
2018-07-16T09:31:10.190Z,2388.00
2018-07-16T09:32:10.912Z,2480.00
2018-07-16T09:33:10.136Z,2444.00
2018-07-16T09:34:10.071Z,2464.00
2018-07-16T09:35:10.029Z,2428.00
2018-07-16T09:36:09.989Z,2424.00
2018-07-16T09:37:09.947Z,2460.00
2018-07-16T09:38:09.934Z,2448.00
2018-07-16T09:39:09.914Z,2416.00
2018-07-16T09:40:09.828Z,2388.00
2018-07-16T09:41:09.786Z,2440.00
2018-07-16T09:42:09.745Z,2396.00
2018-07-16T09:43:09.734Z,2424.00
2018-07-16T09:44:09.677Z,2392.00
2018-07-16T09:45:09.630Z,2404.00
2018-07-16T09:46:09.580Z,2464.00
2018-07-16T09:47:09.543Z,2436.00
2018-07-16T09:48:09.535Z,2436.00
2018-07-16T09:49:09.465Z,2428.00
2018-07-16T09:50:09.422Z,2440.00
2018-07-16T09:51:09.381Z,2472.00
2018-07-16T09:52:09.340Z,2428.00
2018-07-16T09:53:09.322Z,2480.00
2018-07-16T09:54:09.259Z,2476.00
2018-07-16T09:55:09.219Z,2480.00
2018-07-16T09:56:09.237Z,2616.00
2018-07-16T09:57:09.138Z,2492.00
2018-07-16T09:58:09.129Z,2480.00
2018-07-16T09:59:09.058Z,2436.00
2018-07-16T10:00:09.025Z,2440.00
2018-07-16T10:01:08.975Z,2444.00
2018-07-16T10:02:08.934Z,2484.00
2018-07-16T10:03:08.919Z,2488.00
2018-07-16T10:04:08.858Z,2476.00
2018-07-16T10:05:08.827Z,2520.00
2018-07-16T10:06:08.776Z,2464.00
2018-07-16T10:07:08.740Z,2448.00
2018-07-16T10:08:08.720Z,2436.00
2018-07-16T10:09:08.652Z,2448.00
2018-07-16T10:10:08.614Z,2452.00
2018-07-16T10:11:08.574Z,2460.00
2018-07-16T10:12:08.531Z,2464.00
2018-07-16T10:13:08.545Z,2484.00
2018-07-16T10:14:08.450Z,2520.00
2018-07-16T10:15:08.414Z,2568.00
2018-07-16T10:16:08.370Z,2520.00
2018-07-16T10:17:08.333Z,2520.00
2018-07-16T10:18:08.292Z,2484.00
2018-07-16T10:19:08.277Z,2496.00
2018-07-16T10:20:08.277Z,2504.00
2018-07-16T10:21:08.171Z,2512.00
2018-07-16T10:22:08.131Z,2504.00
2018-07-16T10:23:08.093Z,2496.00
2018-07-16T10:24:08.071Z,2476.00
2018-07-16T10:25:08.012Z,2436.00
2018-07-16T10:26:07.971Z,2496.00
2018-07-16T10:27:07.937Z,2516.00
2018-07-16T10:28:07.889Z,2564.00
2018-07-16T10:29:14.975Z,2552.00
2018-07-16T10:30:07.812Z,2556.00
2018-07-16T10:31:07.771Z,2600.00
2018-07-16T10:32:07.739Z,2560.00
2018-07-16T10:33:07.694Z,2548.00
2018-07-16T10:34:07.678Z,2548.00
2018-07-16T10:35:07.618Z,2544.00
2018-07-16T10:36:07.571Z,2528.00
2018-07-16T10:37:07.537Z,2572.00
2018-07-16T10:38:07.486Z,2744.00
2018-07-16T10:39:07.479Z,2552.00
2018-07-16T10:40:07.411Z,2548.00
2018-07-16T10:41:07.368Z,2508.00
2018-07-16T10:42:07.332Z,2548.00
2018-07-16T10:43:07.290Z,2520.00
2018-07-16T10:44:07.278Z,2496.00
2018-07-16T10:45:07.211Z,2476.00
2018-07-16T10:46:07.171Z,2476.00
2018-07-16T10:47:07.129Z,2472.00
2018-07-16T10:48:07.093Z,2448.00
2018-07-16T10:49:07.072Z,2440.00
2018-07-16T10:50:07.014Z,2432.00
2018-07-16T10:51:06.969Z,2424.00
2018-07-16T10:52:06.932Z,2416.00
2018-07-16T10:53:06.895Z,2600.00
2018-07-16T10:54:06.877Z,2392.00
2018-07-16T10:55:06.829Z,2436.00
2018-07-16T10:56:06.775Z,2464.00
2018-07-16T10:57:06.732Z,2480.00
2018-07-16T10:58:06.691Z,2480.00
2018-07-16T10:59:06.679Z,2512.00
2018-07-16T11:00:06.612Z,2488.00
2018-07-16T11:01:07.225Z,2480.00
2018-07-16T11:02:06.534Z,2468.00
2018-07-16T11:03:06.573Z,2436.00
2018-07-16T11:04:06.480Z,2480.00
2018-07-16T11:05:06.417Z,2592.00
2018-07-16T11:06:06.376Z,2516.00
2018-07-16T11:07:06.338Z,2488.00
2018-07-16T11:08:06.297Z,2520.00
2018-07-16T11:09:06.279Z,2472.00
2018-07-16T11:10:06.219Z,2516.00
2018-07-16T11:11:06.182Z,2532.00
2018-07-16T11:12:06.137Z,2540.00
2018-07-16T11:13:06.096Z,2536.00
2018-07-16T11:14:06.079Z,2552.00
2018-07-16T11:15:06.035Z,2532.00
2018-07-16T11:16:05.980Z,2464.00
2018-07-16T11:17:05.940Z,2472.00
2018-07-16T11:18:05.904Z,2464.00
2018-07-16T11:19:05.883Z,2464.00
2018-07-16T11:20:05.820Z,2448.00
2018-07-16T11:21:05.782Z,2432.00
2018-07-16T11:22:05.742Z,2428.00
2018-07-16T11:23:05.706Z,2396.00
2018-07-16T11:24:05.689Z,2360.00
2018-07-16T11:25:05.625Z,2344.00
2018-07-16T11:26:05.584Z,2356.00
2018-07-16T11:27:05.545Z,2408.00
2018-07-16T11:28:05.511Z,2400.00
2018-07-16T11:29:05.489Z,2456.00
2018-07-16T11:30:05.423Z,2368.00
2018-07-16T11:31:05.385Z,2424.00
2018-07-16T11:32:05.346Z,2424.00
2018-07-16T11:33:05.313Z,2452.00
2018-07-16T11:34:05.306Z,2580.00
2018-07-16T11:35:05.227Z,2532.00
2018-07-16T11:36:05.185Z,2620.00
2018-07-16T11:37:05.147Z,2676.00
2018-07-16T11:38:05.105Z,2416.00
2018-07-16T11:39:05.093Z,1980.00
2018-07-16T11:40:05.036Z,1980.00
2018-07-16T11:41:04.990Z,1956.00
2018-07-16T11:42:04.947Z,2088.00
2018-07-16T11:43:04.909Z,2036.00
2018-07-16T11:44:04.907Z,2200.00
2018-07-16T11:45:04.827Z,2284.00
2018-07-16T11:46:04.836Z,2476.00
2018-07-16T11:47:04.745Z,2588.00
2018-07-16T11:48:04.707Z,2556.00
2018-07-16T11:49:04.665Z,2504.00
2018-07-16T11:50:04.654Z,2468.00
2018-07-16T11:51:04.590Z,2464.00
2018-07-16T11:52:04.610Z,2456.00
2018-07-16T11:53:04.507Z,2432.00
2018-07-16T11:54:04.468Z,2440.00
2018-07-16T11:55:04.450Z,2468.00
2018-07-16T11:56:04.381Z,2476.00
2018-07-16T11:57:04.346Z,2484.00
2018-07-16T11:58:04.312Z,2528.00
2018-07-16T11:59:04.336Z,2544.00
2018-07-16T12:00:04.244Z,2408.00
2018-07-16T12:01:04.185Z,2412.00
2018-07-16T12:02:04.141Z,2392.00
2018-07-16T12:03:04.100Z,2384.00
2018-07-16T12:04:04.063Z,2344.00
2018-07-16T12:05:04.096Z,2340.00
2018-07-16T12:06:03.984Z,2360.00
2018-07-16T12:07:03.940Z,2308.00
2018-07-16T12:08:03.903Z,2436.00
2018-07-16T12:09:03.862Z,2400.00
2018-07-16T12:10:03.844Z,2388.00
2018-07-16T12:11:03.778Z,2408.00
2018-07-16T12:12:03.739Z,2380.00
2018-07-16T12:13:03.702Z,2396.00
2018-07-16T12:14:03.659Z,2412.00
2018-07-16T12:15:03.642Z,2204.00
2018-07-16T12:16:03.579Z,2428.00
2018-07-16T12:17:03.543Z,2412.00
2018-07-16T12:18:03.497Z,2396.00
2018-07-16T12:19:03.458Z,2412.00
2018-07-16T12:20:03.442Z,2408.00
2018-07-16T12:21:03.377Z,2412.00
2018-07-16T12:22:03.340Z,2376.00
2018-07-16T12:23:03.295Z,2316.00
2018-07-16T12:24:03.255Z,2292.00
2018-07-16T12:25:03.246Z,2316.00